createdAt,value
2022-12-27T00:00:57.122Z,7.20
2022-12-27T00:03:30.667Z,7.38
2022-12-27T00:05:57.719Z,6.72
2022-12-27T00:08:25.236Z,6.05
2022-12-27T00:10:52.303Z,6.20
2022-12-27T00:13:19.818Z,6.50
2022-12-27T00:15:49.081Z,5.82
2022-12-27T00:18:16.640Z,6.70
2022-12-27T00:20:43.593Z,6.07
2022-12-27T00:23:10.930Z,5.50
2022-12-27T00:25:37.882Z,5.63
2022-12-27T00:28:05.464Z,6.35
2022-12-27T00:30:33.071Z,5.65
2022-12-27T00:33:00.574Z,4.78
2022-12-27T00:35:27.534Z,5.57
2022-12-27T00:37:55.013Z,5.20
2022-12-27T00:40:22.017Z,5.72
2022-12-27T00:42:49.548Z,5.18
2022-12-27T00:45:16.569Z,4.85
2022-12-27T00:47:43.826Z,5.32
2022-12-27T00:50:10.805Z,5.45
2022-12-27T00:52:38.331Z,4.95
2022-12-27T00:55:05.714Z,5.53
2022-12-27T00:57:32.958Z,5.22
2022-12-27T01:00:03.373Z,4.60
2022-12-27T01:02:33.613Z,4.75
2022-12-27T01:05:00.683Z,5.65
2022-12-27T01:07:28.212Z,4.95
2022-12-27T01:09:55.157Z,5.10
2022-12-27T01:12:22.701Z,4.65
2022-12-27T01:14:49.668Z,4.22
2022-12-27T01:17:16.946Z,4.57
2022-12-27T01:19:43.983Z,5.03
2022-12-27T01:22:11.582Z,4.72
2022-12-27T01:24:38.574Z,5.25
2022-12-27T01:27:06.153Z,4.90
2022-12-27T01:29:33.122Z,2.20
2022-12-27T01:32:00.623Z,1.40
2022-12-27T01:34:27.635Z,1.13
2022-12-27T01:36:54.894Z,1.23
2022-12-27T01:39:21.953Z,0.50
2022-12-27T01:42:08.140Z,0.73
2022-12-27T01:44:44.016Z,0.77
2022-12-27T01:47:20.428Z,0.93
2022-12-27T01:50:03.950Z,0.50
2022-12-27T01:52:52.070Z,0.70
2022-12-27T01:55:39.586Z,0.60
2022-12-27T01:58:31.765Z,0.43
2022-12-27T02:00:59.488Z,0.52
2022-12-27T02:03:26.920Z,0.60
2022-12-27T02:05:54.650Z,0.30
2022-12-27T02:08:27.301Z,0.60
2022-12-27T02:10:55.873Z,0.53
2022-12-27T02:13:23.656Z,0.50
2022-12-27T02:15:51.132Z,0.47
2022-12-27T02:18:19.141Z,0.65
2022-12-27T02:21:31.481Z,0.68
2022-12-27T02:24:29.466Z,0.70
2022-12-27T02:27:05.975Z,0.50
2022-12-27T02:30:07.979Z,0.80
2022-12-27T02:33:04.285Z,0.50
2022-12-27T02:35:42.578Z,0.70
2022-12-27T02:38:31.945Z,0.70
2022-12-27T02:41:21.882Z,0.57
2022-12-27T02:44:07.509Z,0.60
2022-12-27T02:46:53.385Z,1.00
2022-12-27T02:49:45.002Z,0.45
2022-12-27T02:52:45.697Z,0.60
2022-12-27T02:55:22.721Z,0.80
2022-12-27T02:58:07.677Z,0.55
2022-12-27T03:01:09.645Z,0.90
2022-12-27T03:04:00.607Z,0.73
2022-12-27T03:06:58.041Z,1.02
2022-12-27T03:10:04.049Z,1.05
2022-12-27T03:13:34.101Z,1.00
2022-12-27T03:16:19.323Z,0.80
2022-12-27T03:19:01.339Z,0.40
2022-12-27T03:21:51.486Z,0.45
2022-12-27T03:24:44.844Z,0.73
2022-12-27T03:27:31.032Z,0.50
2022-12-27T03:30:19.100Z,0.65
2022-12-27T03:33:14.834Z,0.30
2022-12-27T03:36:28.991Z,0.60
2022-12-27T03:39:34.791Z,0.77
2022-12-27T03:42:25.283Z,0.70
2022-12-27T03:44:52.652Z,0.70
2022-12-27T03:47:47.371Z,0.98
2022-12-27T03:50:31.464Z,0.35
2022-12-27T03:53:06.397Z,0.40
2022-12-27T03:55:33.923Z,0.73
2022-12-27T03:58:01.123Z,0.90
2022-12-27T04:00:29.424Z,0.75
2022-12-27T04:02:56.811Z,0.60
2022-12-27T04:05:24.188Z,0.88
2022-12-27T04:08:09.840Z,0.40
2022-12-27T04:10:55.816Z,0.65
2022-12-27T04:13:41.234Z,1.10
2022-12-27T04:16:27.443Z,1.08
2022-12-27T04:19:12.987Z,0.60
2022-12-27T04:21:59.042Z,0.77
2022-12-27T04:24:44.482Z,0.82
2022-12-27T04:27:30.469Z,0.85
2022-12-27T04:30:15.928Z,0.75
2022-12-27T04:33:01.999Z,1.05
2022-12-27T04:35:29.017Z,0.73
2022-12-27T04:37:56.586Z,0.88
2022-12-27T04:40:41.891Z,1.17
2022-12-27T04:43:28.134Z,0.80
2022-12-27T04:46:13.558Z,1.35
2022-12-27T04:48:59.796Z,0.52
2022-12-27T04:52:05.023Z,0.60
2022-12-27T04:54:50.875Z,0.68
2022-12-27T04:57:17.854Z,1.08
2022-12-27T05:00:04.053Z,0.75
2022-12-27T05:02:31.308Z,0.80
2022-12-27T05:04:58.902Z,0.70
2022-12-27T05:07:44.684Z,1.25
2022-12-27T05:10:30.921Z,0.75
2022-12-27T05:13:16.246Z,0.88
2022-12-27T05:15:43.824Z,1.17
2022-12-27T05:18:10.916Z,0.93
2022-12-27T05:20:38.227Z,0.60
2022-12-27T05:23:23.665Z,0.77
2022-12-27T05:25:51.035Z,1.50
2022-12-27T05:28:18.051Z,0.82
2022-12-27T05:30:45.642Z,1.25
2022-12-27T05:33:12.880Z,0.60
2022-12-27T05:35:40.887Z,1.08
2022-12-27T05:38:07.946Z,0.85
2022-12-27T05:40:35.368Z,1.10
2022-12-27T05:43:03.847Z,1.27
2022-12-27T05:45:31.275Z,0.70
2022-12-27T05:47:59.021Z,1.30
2022-12-27T05:50:26.787Z,1.70
2022-12-27T05:52:53.836Z,1.02
2022-12-27T05:55:21.217Z,1.23
2022-12-27T05:57:48.157Z,1.00
2022-12-27T06:00:15.986Z,1.15
2022-12-27T06:02:43.165Z,1.45
2022-12-27T06:05:11.126Z,0.40
2022-12-27T06:07:39.137Z,1.15
2022-12-27T06:10:09.053Z,1.05
2022-12-27T06:12:37.198Z,1.25
2022-12-27T06:15:06.553Z,1.10
2022-12-27T06:17:34.424Z,1.00
2022-12-27T06:20:01.921Z,0.70
2022-12-27T06:22:28.970Z,0.85
2022-12-27T06:24:56.493Z,1.10
2022-12-27T06:27:23.448Z,0.70
2022-12-27T06:29:50.749Z,1.27
2022-12-27T06:32:17.831Z,1.17
2022-12-27T06:34:45.531Z,0.90
2022-12-27T06:37:12.576Z,0.95
2022-12-27T06:39:39.792Z,0.75
2022-12-27T06:42:06.833Z,1.42
2022-12-27T06:44:34.110Z,1.13
2022-12-27T06:47:01.461Z,1.02
2022-12-27T06:49:29.408Z,0.75
2022-12-27T06:51:59.806Z,1.05
2022-12-27T06:54:27.768Z,12.85
2022-12-27T06:56:56.312Z,24.30
2022-12-27T06:59:24.463Z,28.55
2022-12-27T07:01:51.654Z,5.90
2022-12-27T07:04:19.020Z,2.42
2022-12-27T07:06:46.029Z,1.63
2022-12-27T07:09:13.356Z,2.15
2022-12-27T07:11:40.322Z,3.63
2022-12-27T07:14:10.561Z,2.40
2022-12-27T07:16:38.046Z,2.08
2022-12-27T07:19:05.687Z,2.92
2022-12-27T07:21:32.774Z,2.72
2022-12-27T07:24:00.210Z,3.53
2022-12-27T07:26:30.291Z,2.92
2022-12-27T07:29:00.311Z,2.75
2022-12-27T07:31:29.944Z,1.48
2022-12-27T07:33:58.877Z,2.03
2022-12-27T07:36:31.863Z,2.58
2022-12-27T07:38:59.167Z,1.90
2022-12-27T07:41:26.389Z,1.17
2022-12-27T07:43:53.837Z,1.20
2022-12-27T07:46:23.527Z,2.25
2022-12-27T07:48:53.269Z,1.27
2022-12-27T07:51:20.300Z,1.10
2022-12-27T07:53:51.741Z,1.80
2022-12-27T07:56:25.786Z,1.48
2022-12-27T07:58:55.747Z,1.00
2022-12-27T08:01:25.232Z,1.75
2022-12-27T08:03:52.791Z,2.05
2022-12-27T08:06:32.440Z,1.67
2022-12-27T08:09:05.035Z,1.15
2022-12-27T08:11:32.219Z,1.55
2022-12-27T08:13:59.514Z,1.92
2022-12-27T08:16:26.927Z,2.03
2022-12-27T08:18:54.460Z,1.77
2022-12-27T08:21:21.789Z,2.05
2022-12-27T08:23:49.667Z,1.98
2022-12-27T08:26:16.648Z,1.55
2022-12-27T08:28:44.235Z,2.20
2022-12-27T08:31:12.992Z,2.70
2022-12-27T08:33:42.080Z,2.20
2022-12-27T08:36:29.202Z,1.92
2022-12-27T08:38:59.297Z,1.48
2022-12-27T08:41:26.304Z,1.80
2022-12-27T08:43:53.801Z,1.85
2022-12-27T08:46:22.115Z,1.23
2022-12-27T08:48:50.919Z,1.23
2022-12-27T08:51:30.282Z,1.73
2022-12-27T08:53:59.173Z,2.38
2022-12-27T08:56:26.381Z,1.58
2022-12-27T08:58:53.991Z,2.92
2022-12-27T09:01:21.098Z,2.40
2022-12-27T09:03:49.215Z,1.90
2022-12-27T09:06:19.334Z,1.70
2022-12-27T09:08:48.485Z,4.05
2022-12-27T09:11:19.102Z,2.03
2022-12-27T09:13:46.537Z,5.78
2022-12-27T09:16:18.886Z,5.72
2022-12-27T09:18:49.539Z,2.83
2022-12-27T09:21:17.611Z,4.03
2022-12-27T09:23:45.900Z,4.97
2022-12-27T09:26:18.676Z,3.28
2022-12-27T09:28:47.233Z,3.63
2022-12-27T09:31:15.716Z,4.40
2022-12-27T09:33:43.713Z,3.88
2022-12-27T09:36:18.372Z,3.17
2022-12-27T09:38:46.600Z,2.72
2022-12-27T09:42:26.006Z,2.70
2022-12-27T09:44:35.299Z,4.13
2022-12-27T09:47:19.143Z,6.10
2022-12-27T09:49:53.575Z,10.25
2022-12-27T09:52:34.214Z,4.10
2022-12-27T09:55:22.005Z,7.22
2022-12-27T09:57:50.884Z,3.55
2022-12-27T10:00:34.566Z,2.78
2022-12-27T10:03:06.479Z,2.58
2022-12-27T10:05:36.523Z,2.75
2022-12-27T10:08:25.966Z,2.58
2022-12-27T10:10:56.387Z,2.58
2022-12-27T10:13:44.573Z,2.80
2022-12-27T10:16:46.932Z,3.22
2022-12-27T10:19:26.586Z,2.53
2022-12-27T10:22:10.699Z,2.85
2022-12-27T10:24:44.244Z,5.00
2022-12-27T10:27:17.758Z,4.82
2022-12-27T10:29:45.312Z,4.80
2022-12-27T10:32:15.943Z,2.60
2022-12-27T10:34:43.297Z,2.75
2022-12-27T10:37:16.308Z,2.65
2022-12-27T10:39:44.155Z,4.43
2022-12-27T10:42:30.943Z,3.40
2022-12-27T10:45:36.458Z,3.05
2022-12-27T10:48:20.373Z,3.03
2022-12-27T10:50:55.455Z,3.30
2022-12-27T10:53:31.717Z,2.78
2022-12-27T10:56:12.843Z,3.03
2022-12-27T10:58:42.000Z,3.40
2022-12-27T11:01:23.332Z,4.32
2022-12-27T11:03:52.019Z,2.90
2022-12-27T11:06:25.320Z,2.60
2022-12-27T11:08:54.255Z,2.67
2022-12-27T11:11:25.863Z,2.92
2022-12-27T11:14:09.121Z,3.40
2022-12-27T11:16:36.810Z,3.13
2022-12-27T11:19:04.680Z,2.95
2022-12-27T11:21:32.120Z,2.55
2022-12-27T11:24:02.601Z,3.33
2022-12-27T11:26:54.146Z,3.22
2022-12-27T11:29:25.013Z,3.67
2022-12-27T11:31:53.227Z,2.80
2022-12-27T11:34:37.265Z,4.03
2022-12-27T11:37:14.478Z,3.55
2022-12-27T11:39:56.678Z,3.38
2022-12-27T11:42:38.822Z,3.75
2022-12-27T11:45:18.348Z,2.83
2022-12-27T11:47:59.105Z,3.88
2022-12-27T11:50:32.251Z,2.88
2022-12-27T11:53:29.540Z,2.90
2022-12-27T11:56:06.177Z,2.58
2022-12-27T11:58:35.938Z,4.05
2022-12-27T12:01:53.773Z,3.53
2022-12-27T12:04:51.886Z,3.13
2022-12-27T12:07:43.393Z,2.50
2022-12-27T12:10:42.420Z,2.92
2022-12-27T12:13:31.532Z,3.05
2022-12-27T12:16:51.905Z,2.55
2022-12-27T12:19:38.218Z,2.25
2022-12-27T12:22:26.340Z,4.25
2022-12-27T12:25:21.449Z,3.15
2022-12-27T12:28:23.150Z,3.60
2022-12-27T12:31:15.752Z,2.67
2022-12-27T12:34:04.505Z,4.28
2022-12-27T12:37:08.300Z,3.95
2022-12-27T12:39:35.252Z,2.83
2022-12-27T12:42:18.245Z,2.67
2022-12-27T12:45:06.625Z,2.35
2022-12-27T12:48:09.102Z,2.17
2022-12-27T12:50:38.997Z,1.95
2022-12-27T12:53:35.396Z,2.00
2022-12-27T12:56:33.265Z,1.90
2022-12-27T12:59:36.904Z,5.20
2022-12-27T13:02:45.296Z,3.08
2022-12-27T13:05:44.366Z,2.67
2022-12-27T13:08:16.003Z,3.42
2022-12-27T13:10:58.351Z,3.70
2022-12-27T13:13:53.360Z,2.42
2022-12-27T13:16:40.342Z,2.88
2022-12-27T13:19:33.595Z,3.30
2022-12-27T13:22:24.640Z,2.78
2022-12-27T13:25:06.135Z,3.50
2022-12-27T13:27:42.143Z,3.85
2022-12-27T13:30:23.002Z,3.17
2022-12-27T13:33:09.157Z,3.42
2022-12-27T13:35:36.160Z,2.75
2022-12-27T13:38:44.994Z,2.53
2022-12-27T13:41:38.002Z,2.30
2022-12-27T13:44:23.648Z,2.45
2022-12-27T13:47:09.287Z,2.40
2022-12-27T13:50:05.211Z,2.55
2022-12-27T13:52:48.155Z,3.17
2022-12-27T13:58:15.643Z,2.22
2022-12-27T14:01:05.984Z,1.77
2022-12-27T14:03:51.003Z,2.47
2022-12-27T14:06:30.366Z,1.95
2022-12-27T14:09:25.166Z,2.05
2022-12-27T14:11:52.766Z,1.77
2022-12-27T14:14:21.756Z,2.70
2022-12-27T14:16:59.057Z,3.92
2022-12-27T14:19:47.373Z,3.00
2022-12-27T14:22:33.474Z,1.65
2022-12-27T14:25:29.604Z,2.15
2022-12-27T14:28:30.502Z,2.25
2022-12-27T14:31:16.291Z,2.40
2022-12-27T14:34:01.380Z,2.55
2022-12-27T14:36:56.452Z,2.33
2022-12-27T14:40:06.198Z,2.20
2022-12-27T14:42:51.324Z,2.58
2022-12-27T14:46:12.339Z,3.05
2022-12-27T14:48:42.277Z,2.60
2022-12-27T14:52:00.022Z,3.22
2022-12-27T14:54:46.777Z,2.42
2022-12-27T14:57:38.968Z,2.55
2022-12-27T15:00:11.981Z,2.83
2022-12-27T15:03:09.726Z,3.53
2022-12-27T15:05:48.798Z,4.50
2022-12-27T15:08:34.297Z,3.15
2022-12-27T15:11:19.417Z,2.35
2022-12-27T15:13:53.276Z,2.30
2022-12-27T15:16:56.169Z,2.53
2022-12-27T15:19:38.248Z,2.67
2022-12-27T15:22:43.385Z,3.45
2022-12-27T15:25:54.917Z,3.00
2022-12-27T15:28:46.122Z,2.67
2022-12-27T15:31:19.610Z,2.75
2022-12-27T15:34:12.496Z,3.20
2022-12-27T15:36:43.191Z,2.40
2022-12-27T15:39:31.966Z,3.83
2022-12-27T15:42:34.784Z,4.15
2022-12-27T15:45:14.161Z,4.07
2022-12-27T15:48:06.831Z,3.28
2022-12-27T15:51:07.260Z,5.18
2022-12-27T15:54:11.077Z,5.45
2022-12-27T15:56:44.131Z,4.78
2022-12-27T15:59:29.890Z,3.65
2022-12-27T16:02:21.319Z,3.83
2022-12-27T16:05:02.734Z,2.80
2022-12-27T16:07:43.760Z,3.00
2022-12-27T16:10:33.595Z,3.35
2022-12-27T16:13:09.492Z,2.55
2022-12-27T16:15:50.337Z,2.90
2022-12-27T16:18:17.841Z,2.47
2022-12-27T16:21:20.749Z,4.15
2022-12-27T16:23:47.805Z,3.83
2022-12-27T16:26:20.905Z,3.75
2022-12-27T16:28:59.413Z,4.00
2022-12-27T16:31:30.776Z,3.40
2022-12-27T16:33:59.927Z,3.20
2022-12-27T16:36:36.585Z,4.13
2022-12-27T16:39:12.344Z,2.95
2022-12-27T16:41:55.035Z,4.43
2022-12-27T16:44:25.112Z,3.35
2022-12-27T16:47:30.080Z,2.42
2022-12-27T16:50:00.089Z,3.30
2022-12-27T16:52:47.056Z,2.97
2022-12-27T16:55:36.520Z,2.53
2022-12-27T16:58:21.112Z,2.42
2022-12-27T17:00:52.846Z,2.78
2022-12-27T17:03:35.571Z,2.28
2022-12-27T17:06:37.701Z,3.85
2022-12-27T17:09:08.289Z,3.25
2022-12-27T17:11:41.791Z,3.28
2022-12-27T17:14:17.218Z,3.22
2022-12-27T17:16:51.791Z,3.30
2022-12-27T17:19:38.970Z,2.78
2022-12-27T17:22:14.453Z,3.55
2022-12-27T17:24:44.295Z,3.13
2022-12-27T17:27:30.116Z,3.65
2022-12-27T17:30:12.731Z,3.47
2022-12-27T17:33:06.219Z,3.80
2022-12-27T17:38:44.926Z,2.63
2022-12-27T17:41:54.298Z,3.15
2022-12-27T17:44:39.514Z,3.92
2022-12-27T17:47:31.793Z,3.45
2022-12-27T17:50:02.611Z,4.10
2022-12-27T17:52:48.647Z,3.88
2022-12-27T17:55:41.376Z,3.63
2022-12-27T17:58:12.556Z,2.35
2022-12-27T18:00:51.665Z,3.53
2022-12-27T18:03:19.032Z,3.28
2022-12-27T18:05:49.101Z,3.20
2022-12-27T18:08:28.779Z,2.97
2022-12-27T18:10:57.859Z,2.85
2022-12-27T18:13:27.536Z,2.95
2022-12-27T18:15:55.723Z,3.40
2022-12-27T18:18:23.682Z,3.10
2022-12-27T18:20:59.787Z,3.38
2022-12-27T18:23:28.141Z,2.72
2022-12-27T18:26:15.360Z,2.13
2022-12-27T18:28:45.866Z,2.35
2022-12-27T18:31:25.003Z,2.65
2022-12-27T18:34:01.207Z,2.97
2022-12-27T18:36:40.227Z,2.45
2022-12-27T18:39:19.776Z,2.60
2022-12-27T18:41:49.989Z,3.03
2022-12-27T18:44:27.456Z,7.88
2022-12-27T18:46:58.109Z,7.22
2022-12-27T18:49:35.634Z,5.82
2022-12-27T18:52:15.118Z,4.07
2022-12-27T18:54:45.207Z,3.78
2022-12-27T18:57:35.887Z,3.42
2022-12-27T19:00:26.559Z,2.47
2022-12-27T19:02:55.161Z,2.92
2022-12-27T19:05:26.562Z,2.13
2022-12-27T19:08:20.239Z,2.67
2022-12-27T19:10:50.296Z,3.33
2022-12-27T19:13:25.799Z,3.70
2022-12-27T19:15:55.186Z,2.80
2022-12-27T19:18:31.442Z,2.70
2022-12-27T19:21:01.505Z,2.75
2022-12-27T19:23:30.367Z,3.33
2022-12-27T19:26:04.999Z,3.13
2022-12-27T19:28:33.333Z,2.92
2022-12-27T19:31:16.199Z,2.75
2022-12-27T19:33:47.489Z,3.10
2022-12-27T19:36:15.273Z,3.67
2022-12-27T19:38:47.581Z,3.53
2022-12-27T19:41:15.332Z,3.92
2022-12-27T19:43:44.907Z,3.05
2022-12-27T19:46:14.229Z,4.32
2022-12-27T19:48:41.379Z,3.35
2022-12-27T19:51:16.181Z,3.47
2022-12-27T19:53:49.961Z,3.30
2022-12-27T19:56:20.111Z,4.35
2022-12-27T19:58:50.541Z,3.17
2022-12-27T20:01:17.941Z,3.22
2022-12-27T20:03:45.118Z,2.92
2022-12-27T20:06:20.721Z,3.35
2022-12-27T20:08:52.364Z,3.25
2022-12-27T20:11:23.120Z,3.55
2022-12-27T20:13:50.397Z,3.15
2022-12-27T20:16:19.362Z,3.05
2022-12-27T20:18:47.079Z,3.20
2022-12-27T20:21:19.257Z,2.95
2022-12-27T20:23:47.086Z,3.05
2022-12-27T20:26:18.638Z,3.28
2022-12-27T20:28:46.226Z,3.55
2022-12-27T20:31:15.935Z,3.22
2022-12-27T20:33:43.542Z,3.40
2022-12-27T20:36:12.026Z,3.95
2022-12-27T20:38:39.447Z,3.03
2022-12-27T20:41:15.274Z,4.07
2022-12-27T20:43:42.796Z,2.78
2022-12-27T20:46:16.377Z,6.00
2022-12-27T20:48:45.220Z,3.55
2022-12-27T20:51:16.172Z,5.65
2022-12-27T20:53:44.354Z,4.75
2022-12-27T20:56:13.004Z,2.90
2022-12-27T20:58:40.296Z,4.10
2022-12-27T21:01:16.498Z,5.43
2022-12-27T21:03:44.659Z,9.15
2022-12-27T21:06:15.556Z,5.70
2022-12-27T21:08:49.213Z,4.68
2022-12-27T21:11:24.620Z,3.85
2022-12-27T21:13:51.751Z,4.03
2022-12-27T21:16:22.070Z,3.03
2022-12-27T21:18:49.695Z,3.95
2022-12-27T21:21:20.995Z,3.78
2022-12-27T21:23:49.013Z,3.35
2022-12-27T21:26:19.478Z,3.03
2022-12-27T21:28:47.550Z,3.05
2022-12-27T21:31:17.366Z,3.33
2022-12-27T21:33:45.012Z,3.78
2022-12-27T21:36:19.628Z,2.90
2022-12-27T21:38:47.781Z,3.08
2022-12-27T21:41:23.828Z,3.38
2022-12-27T21:43:51.171Z,3.22
2022-12-27T21:46:20.361Z,3.50
2022-12-27T21:48:48.885Z,3.38
2022-12-27T21:51:18.415Z,4.25
2022-12-27T21:53:49.436Z,3.53
2022-12-27T21:56:17.336Z,4.45
2022-12-27T21:58:45.144Z,3.97
2022-12-27T22:01:18.910Z,4.60
2022-12-27T22:03:48.678Z,3.35
2022-12-27T22:06:25.522Z,3.78
2022-12-27T22:08:55.274Z,4.07
2022-12-27T22:11:23.688Z,3.53
2022-12-27T22:13:51.073Z,3.53
2022-12-27T22:16:27.265Z,3.28
2022-12-27T22:18:56.165Z,3.53
2022-12-27T22:21:29.691Z,4.30
2022-12-27T22:23:58.544Z,4.43
2022-12-27T22:26:32.846Z,4.35
2022-12-27T22:29:00.167Z,6.30
2022-12-27T22:31:32.934Z,9.68
2022-12-27T22:34:00.051Z,5.90
2022-12-27T22:36:27.899Z,7.10
2022-12-27T22:38:59.361Z,6.35
2022-12-27T22:41:31.314Z,5.57
2022-12-27T22:44:07.746Z,6.15
2022-12-27T22:49:23.025Z,4.45
2022-12-27T22:51:50.022Z,3.85
2022-12-27T22:54:17.768Z,4.30
2022-12-27T22:56:44.824Z,4.40
2022-12-27T22:59:15.226Z,3.97
2022-12-27T23:01:43.837Z,3.85
2022-12-27T23:04:13.572Z,4.00
2022-12-27T23:06:41.631Z,3.75
2022-12-27T23:09:09.414Z,4.75
2022-12-27T23:11:40.487Z,4.28
2022-12-27T23:14:14.337Z,4.25
2022-12-27T23:16:50.583Z,4.05
2022-12-27T23:19:20.814Z,4.25
2022-12-27T23:21:48.677Z,4.40
2022-12-27T23:24:16.426Z,4.22
2022-12-27T23:26:43.533Z,4.07
2022-12-27T23:29:12.802Z,4.50
2022-12-27T23:31:55.529Z,4.93
2022-12-27T23:34:28.592Z,4.70
2022-12-27T23:36:58.067Z,4.18
2022-12-27T23:39:26.294Z,4.57
2022-12-27T23:41:53.829Z,4.30
2022-12-27T23:44:33.968Z,5.00
2022-12-27T23:47:02.986Z,5.53
2022-12-27T23:49:30.959Z,8.50
2022-12-27T23:51:57.934Z,6.72
2022-12-27T23:54:25.345Z,6.10
2022-12-27T23:56:52.304Z,4.88
2022-12-27T23:59:19.886Z,5.15
